Time;durP1;ratioP1;P1;durP2;ratioP2;P2;SDS_P1;SDS_P2;PMS_P1;PMS_P2;Temp;Humidity;BMP_temperature;BMP_pressure;BME280_temperature;BME280_humidity;BME280_pressure;Samples;Min_cycle;Max_cycle;Signal;HPM_P1;HPM_P2
2022/11/03 00:01:45;;;;;;;7.85;2.53;;;8.60;93.10;;;;;;4923178;29;20043;-70
2022/11/03 00:04:14;;;;;;;7.88;2.28;;;8.50;93.00;;;;;;4924761;29;20042;-70
2022/11/03 00:06:41;;;;;;;3.72;2.15;;;8.50;93.10;;;;;;4924406;29;20054;-70
2022/11/03 00:09:09;;;;;;;6.80;2.80;;;8.50;93.10;;;;;;4924313;29;20547;-70
2022/11/03 00:11:37;;;;;;;7.05;2.47;;;8.50;93.30;;;;;;4921662;29;20072;-70
2022/11/03 00:14:03;;;;;;;6.13;2.67;;;8.40;93.40;;;;;;4925000;29;20038;-69
2022/11/03 00:16:29;;;;;;;6.43;2.55;;;8.40;93.30;;;;;;4924645;29;20071;-70
2022/11/03 00:18:54;;;;;;;6.45;2.60;;;8.40;93.30;;;;;;4923105;29;20119;-69
2022/11/03 00:21:21;;;;;;;5.10;2.33;;;8.40;93.40;;;;;;4921602;29;20522;-70
2022/11/03 00:23:47;;;;;;;9.98;2.63;;;8.40;93.50;;;;;;4923535;29;20035;-70
2022/11/03 00:26:20;;;;;;;9.27;2.90;;;8.30;93.50;;;;;;4922533;29;20039;-70
2022/11/03 00:28:59;;;;;;;8.32;2.90;;;8.30;93.50;;;;;;4923237;29;20465;-70
2022/11/03 00:31:33;;;;;;;4.70;2.30;;;8.30;93.60;;;;;;4921543;29;20488;-70
2022/11/03 00:34:00;;;;;;;6.43;2.72;;;8.30;93.70;;;;;;4922775;29;20058;-70
2022/11/03 00:36:33;;;;;;;6.93;2.60;;;8.30;93.60;;;;;;4923373;29;20020;-70
2022/11/03 00:38:59;;;;;;;6.30;3.55;;;8.20;93.60;;;;;;4926176;29;20067;-70
2022/11/03 00:41:25;;;;;;;6.80;2.53;;;8.20;93.70;;;;;;4919676;29;20065;-70
2022/11/03 00:43:52;;;;;;;7.45;2.63;;;8.20;93.90;;;;;;4923996;29;20046;-70
2022/11/03 00:46:19;;;;;;;4.53;2.35;;;8.20;94.00;;;;;;4924091;29;20043;-70
2022/11/03 00:48:45;;;;;;;6.70;2.65;;;8.10;93.80;;;;;;4922550;29;20035;-70
2022/11/03 00:51:18;;;;;;;5.35;2.35;;;8.10;93.80;;;;;;4923760;29;20032;-70
2022/11/03 00:53:54;;;;;;;9.23;2.28;;;8.10;93.80;;;;;;4924453;29;20032;-70
2022/11/03 00:56:31;;;;;;;7.03;2.22;;;8.10;93.80;;;;;;4919244;29;20032;-70
2022/11/03 00:58:58;;;;;;;5.22;2.40;;;8.10;93.90;;;;;;4920349;29;20487;-69
2022/11/03 01:01:27;;;;;;;3.83;2.40;;;8.00;93.90;;;;;;4924900;29;20039;-70
2022/11/03 01:06:50;;;;;;;8.68;2.65;;;8.00;94.00;;;;;;4922124;29;20051;-70
2022/11/03 01:09:26;;;;;;;9.05;3.40;;;8.00;94.10;;;;;;4922946;29;20071;-70
2022/11/03 01:12:09;;;;;;;5.00;2.63;;;8.00;94.10;;;;;;4920632;29;20150;-70
2022/11/03 01:14:43;;;;;;;7.00;2.70;;;7.90;94.10;;;;;;4920415;29;20039;-70
2022/11/03 01:17:16;;;;;;;6.40;2.55;;;7.90;94.30;;;;;;4919314;29;20051;-70
2022/11/03 01:19:42;;;;;;;7.25;2.55;;;7.90;94.20;;;;;;4919858;29;20777;-70
2022/11/03 01:22:08;;;;;;;4.95;2.17;;;7.90;94.30;;;;;;4922842;29;20035;-70
2022/11/03 01:24:34;;;;;;;8.57;2.75;;;7.90;94.50;;;;;;4920335;29;20097;-70
2022/11/03 01:27:00;;;;;;;8.48;2.70;;;7.80;94.70;;;;;;4923792;29;20047;-70
2022/11/03 01:29:25;;;;;;;8.63;2.80;;;7.80;94.80;;;;;;4922911;29;20039;-70
2022/11/03 01:31:51;;;;;;;7.45;3.13;;;7.80;94.90;;;;;;4921530;29;20144;-70
2022/11/03 01:34:19;;;;;;;6.03;2.67;;;7.90;94.90;;;;;;4920626;29;20039;-70
2022/11/03 01:36:45;;;;;;;5.57;2.65;;;7.90;94.80;;;;;;4920373;29;20032;-70
2022/11/03 01:39:13;;;;;;;8.82;2.72;;;7.90;94.90;;;;;;4921823;29;20067;-70
2022/11/03 01:41:40;;;;;;;5.93;2.80;;;7.80;95.10;;;;;;4923142;29;20437;-70
2022/11/03 01:44:06;;;;;;;9.35;3.03;;;7.80;95.10;;;;;;4922100;29;20063;-70
2022/11/03 01:46:35;;;;;;;12.02;3.38;;;7.80;95.00;;;;;;4923717;29;20134;-69
2022/11/03 01:49:13;;;;;;;10.07;2.90;;;7.80;94.80;;;;;;4924271;29;20038;-70
2022/11/03 01:51:42;;;;;;;10.93;2.97;;;7.80;95.00;;;;;;4920595;29;20044;-70
2022/11/03 01:54:11;;;;;;;9.80;3.00;;;7.80;95.20;;;;;;4921974;29;20981;-70
2022/11/03 01:56:42;;;;;;;3.83;2.08;;;7.80;95.20;;;;;;4919018;29;20047;-70
2022/11/03 01:59:09;;;;;;;4.97;2.17;;;7.80;95.10;;;;;;4917372;29;20083;-70
2022/11/03 02:01:35;;;;;;;15.15;2.92;;;7.80;95.50;;;;;;4921125;29;20049;-69
2022/11/03 02:04:13;;;;;;;6.43;2.17;;;7.80;95.50;;;;;;4922310;29;20122;-70
2022/11/03 02:06:39;;;;;;;7.13;2.13;;;7.90;95.50;;;;;;4921626;29;20128;-67
2022/11/03 02:09:07;;;;;;;7.80;2.22;;;7.80;95.40;;;;;;4921106;29;20118;-67
2022/11/03 02:14:18;;;;;;;7.68;2.33;;;7.90;95.30;;;;;;4921905;29;20066;-67
2022/11/03 02:16:58;;;;;;;9.43;2.60;;;7.90;95.30;;;;;;4922792;29;20117;-67
2022/11/03 02:19:32;;;;;;;3.45;2.03;;;7.90;95.40;;;;;;4920542;29;20504;-67
2022/11/03 02:22:06;;;;;;;5.07;2.10;;;7.90;95.40;;;;;;4921801;29;20039;-67
2022/11/03 02:24:32;;;;;;;6.93;2.30;;;8.00;95.50;;;;;;4922918;29;20070;-68
2022/11/03 02:26:58;;;;;;;5.95;2.10;;;8.00;95.40;;;;;;4924317;29;20075;-67
2022/11/03 02:29:24;;;;;;;6.97;2.05;;;8.00;95.30;;;;;;4923282;29;20031;-67
2022/11/03 02:32:25;;;;;;;3.00;1.90;;;8.10;95.20;;;;;;4918209;29;20385;-70
2022/11/03 02:35:06;;;;;;;5.40;1.92;;;8.10;95.10;;;;;;4898410;29;20051;-70
2022/11/03 02:37:36;;;;;;;4.88;1.83;;;8.20;95.00;;;;;;4922518;29;20131;-69
2022/11/03 02:40:27;;;;;;;6.28;2.20;;;8.20;94.80;;;;;;4920656;29;20036;-70
2022/11/03 02:42:54;;;;;;;12.10;2.20;;;8.20;94.70;;;;;;4917459;29;20048;-70
2022/11/03 02:45:23;;;;;;;7.18;2.30;;;8.20;94.70;;;;;;4922939;29;20036;-70
2022/11/03 02:47:51;;;;;;;6.25;2.25;;;8.20;94.60;;;;;;4920377;29;20037;-70
2022/11/03 02:50:18;;;;;;;5.65;1.75;;;8.20;94.60;;;;;;4922612;29;20032;-70
2022/11/03 02:52:46;;;;;;;4.32;2.17;;;8.30;94.50;;;;;;4918774;29;20071;-70
2022/11/03 02:55:22;;;;;;;3.38;1.73;;;8.30;94.50;;;;;;4922244;29;20040;-70
2022/11/03 02:57:58;;;;;;;;;;;8.40;94.40;;;;;;4922557;29;20031;-70
2022/11/03 03:00:24;;;;;;;7.45;2.10;;;8.40;94.30;;;;;;4921690;29;19958;-69
2022/11/03 03:02:53;;;;;;;7.47;1.98;;;8.40;94.10;;;;;;4923281;29;20527;-69
2022/11/03 03:05:22;;;;;;;8.52;2.15;;;8.40;94.00;;;;;;4923043;29;20055;-69
2022/11/03 03:07:51;;;;;;;6.75;2.00;;;8.50;94.00;;;;;;4916754;29;20091;-70
2022/11/03 03:10:22;;;;;;;7.72;2.20;;;8.50;93.80;;;;;;4922237;29;20036;-70
2022/11/03 03:12:51;;;;;;;6.70;2.15;;;8.50;93.70;;;;;;4919709;29;20032;-69
2022/11/03 03:15:22;;;;;;;8.57;1.77;;;8.50;93.70;;;;;;4922136;29;20031;-70
2022/11/03 03:18:26;;;;;;;6.60;1.88;;;8.60;93.60;;;;;;4921550;29;20378;-70
2022/11/03 03:21:02;;;;;;;9.63;2.42;;;8.60;93.60;;;;;;4914542;29;20052;-70
2022/11/03 03:23:34;;;;;;;6.10;1.80;;;8.60;93.50;;;;;;4923549;29;20567;-70
2022/11/03 03:26:09;;;;;;;11.48;2.10;;;8.60;93.40;;;;;;4925910;29;20123;-70
2022/11/03 03:28:50;;;;;;;6.78;1.70;;;8.70;93.30;;;;;;4923264;29;20051;-70
2022/11/03 03:31:18;;;;;;;7.28;2.50;;;8.70;93.30;;;;;;4923486;29;20042;-70
2022/11/03 03:33:45;;;;;;;8.68;2.65;;;8.70;93.30;;;;;;4923999;29;20047;-70
2022/11/03 03:36:15;;;;;;;8.10;2.17;;;8.70;93.10;;;;;;4927017;29;20110;-70
2022/11/03 03:38:45;;;;;;;4.35;2.10;;;8.70;93.30;;;;;;4925321;29;20488;-70
2022/11/03 03:41:20;;;;;;;6.18;1.83;;;8.70;93.10;;;;;;4926456;29;20975;-69
2022/11/03 03:43:59;;;;;;;5.93;1.60;;;8.70;93.10;;;;;;4926370;29;20142;-70
2022/11/03 03:46:35;;;;;;;6.88;2.10;;;8.60;93.20;;;;;;4929000;29;20086;-70
2022/11/03 03:49:01;;;;;;;;;;;8.60;93.10;;;;;;4921846;29;20043;-70
2022/11/03 03:51:28;;;;;;;3.55;1.88;;;8.70;93.00;;;;;;4923936;29;19915;-70
2022/11/03 03:53:54;;;;;;;5.72;1.85;;;8.60;93.10;;;;;;4925071;29;20040;-69
2022/11/03 03:56:29;;;;;;;10.20;2.20;;;8.60;93.10;;;;;;4924992;29;20046;-70
2022/11/03 03:58:54;;;;;;;5.90;1.58;;;8.60;93.20;;;;;;4922743;29;20773;-70
2022/11/03 04:01:20;;;;;;;8.93;1.83;;;8.60;93.10;;;;;;4926568;29;20047;-70
2022/11/03 04:03:46;;;;;;;5.82;2.00;;;8.60;93.20;;;;;;4922382;29;20396;-70
2022/11/03 04:06:11;;;;;;;4.18;2.03;;;8.60;93.20;;;;;;4924584;29;20842;-70
2022/11/03 04:08:37;;;;;;;4.88;1.70;;;8.60;93.20;;;;;;4922902;29;20638;-70
2022/11/03 04:22:16;;;;;;;3.90;2.22;;;8.40;93.50;;;;;;4920785;29;20031;-70
2022/11/03 04:24:48;;;;;;;7.30;1.98;;;8.40;93.50;;;;;;4922223;29;20094;-70
2022/11/03 04:27:17;;;;;;;8.48;2.47;;;8.40;93.70;;;;;;4919078;29;20479;-70
2022/11/03 04:29:43;;;;;;;6.03;2.20;;;8.40;93.80;;;;;;4922656;29;20389;-70
2022/11/03 04:32:15;;;;;;;3.92;1.85;;;8.40;93.70;;;;;;4923087;29;20040;-69
2022/11/03 04:34:41;;;;;;;4.47;1.88;;;8.40;93.70;;;;;;4923628;29;20139;-70
2022/11/03 04:37:14;;;;;;;4.53;1.98;;;8.40;93.70;;;;;;4924970;29;20135;-70
2022/11/03 04:39:40;;;;;;;6.20;1.85;;;8.30;93.80;;;;;;4924172;29;20782;-69
2022/11/03 04:42:19;;;;;;;7.45;2.20;;;8.30;93.80;;;;;;4920374;29;20480;-70
2022/11/03 04:44:46;;;;;;;5.15;1.88;;;8.30;93.80;;;;;;4922448;29;20035;-70
2022/11/03 04:47:13;;;;;;;6.25;1.85;;;8.30;93.90;;;;;;4921823;29;20044;-70
2022/11/03 04:49:39;;;;;;;13.00;2.40;;;8.20;94.00;;;;;;4922000;29;20424;-70
2022/11/03 04:52:15;;;;;;;7.45;2.30;;;8.20;94.20;;;;;;4923250;29;20035;-70
2022/11/03 04:54:41;;;;;;;8.13;2.15;;;8.20;94.30;;;;;;4923799;29;20054;-69
2022/11/03 04:57:13;;;;;;;8.27;2.50;;;8.20;94.30;;;;;;4925557;29;20046;-70
2022/11/03 04:59:40;;;;;;;4.53;2.00;;;8.10;94.40;;;;;;4919398;29;20043;-70
2022/11/03 05:02:12;;;;;;;10.10;2.70;;;8.10;94.50;;;;;;4922360;29;20150;-70
2022/11/03 05:04:38;;;;;;;8.02;2.17;;;8.10;94.40;;;;;;4920723;29;20040;-70
2022/11/03 05:07:29;;;;;;;4.72;2.10;;;8.10;94.30;;;;;;4922649;29;20051;-70
2022/11/03 05:09:55;;;;;;;8.55;2.22;;;8.10;94.30;;;;;;4921433;29;20496;-69
2022/11/03 05:12:22;;;;;;;4.32;2.22;;;8.10;94.30;;;;;;4922780;29;20035;-70
2022/11/03 05:14:48;;;;;;;5.55;2.28;;;8.10;94.30;;;;;;4922641;29;20138;-70
2022/11/03 05:17:27;;;;;;;4.82;2.10;;;8.10;94.20;;;;;;4917392;29;20123;-68
2022/11/03 05:20:00;;;;;;;6.00;2.63;;;8.10;94.30;;;;;;4936288;29;20035;-69
2022/11/03 05:22:31;;;;;;;3.55;2.15;;;8.00;94.30;;;;;;4921472;29;20584;-70
2022/11/03 05:25:01;;;;;;;6.13;2.40;;;8.00;94.30;;;;;;4921139;29;20794;-70
2022/11/03 05:27:27;;;;;;;5.50;2.25;;;7.90;94.20;;;;;;4923077;29;20028;-71
2022/11/03 05:29:56;;;;;;;7.47;2.20;;;7.90;94.40;;;;;;4921505;29;20039;-70
2022/11/03 05:32:26;;;;;;;7.20;2.42;;;7.90;94.40;;;;;;4924189;29;20115;-70
2022/11/03 05:34:53;;;;;;;4.05;2.20;;;7.80;94.60;;;;;;4917157;29;20092;-70
2022/11/03 05:37:34;;;;;;;12.23;3.38;;;7.80;94.60;;;;;;4919573;29;20043;-70
2022/11/03 05:40:13;;;;;;;6.03;2.67;;;7.80;94.80;;;;;;4913564;29;20091;-71
2022/11/03 05:42:41;;;;;;;4.28;2.20;;;7.80;94.80;;;;;;4922434;29;20044;-70
2022/11/03 05:45:19;;;;;;;6.40;2.20;;;7.80;94.80;;;;;;4919487;29;20066;-70
2022/11/03 05:47:46;;;;;;;9.75;2.08;;;7.80;94.80;;;;;;4920726;29;20059;-70
2022/11/03 05:50:20;;;;;;;6.22;2.50;;;7.90;95.00;;;;;;4915251;29;20047;-69
2022/11/03 05:52:49;;;;;;;6.63;2.10;;;7.80;95.10;;;;;;4923076;29;20024;-69
2022/11/03 05:55:32;;;;;;;4.88;2.17;;;7.90;95.30;;;;;;4921156;29;20036;-69
2022/11/03 05:58:06;;;;;;;6.07;2.28;;;7.80;95.20;;;;;;4920618;29;20038;-69
2022/11/03 06:00:38;;;;;;;4.47;2.15;;;7.80;95.20;;;;;;4919680;29;20162;-69
2022/11/03 06:03:05;;;;;;;8.80;2.45;;;7.80;95.10;;;;;;4922140;29;20050;-69
2022/11/03 06:05:32;;;;;;;6.75;2.38;;;7.80;95.00;;;;;;4920579;29;20074;-69
2022/11/03 06:08:01;;;;;;;8.50;3.15;;;7.80;95.00;;;;;;4921645;29;20047;-69
2022/11/03 06:10:33;;;;;;;6.25;2.38;;;7.80;95.00;;;;;;4920617;29;20684;-71
2022/11/03 06:13:13;;;;;;;6.07;2.20;;;7.80;95.10;;;;;;4918588;29;20058;-69
2022/11/03 06:15:42;;;;;;;5.10;2.17;;;7.80;95.10;;;;;;4918591;29;20046;-72
2022/11/03 06:18:18;;;;;;;7.28;2.30;;;7.80;95.10;;;;;;4921345;29;20042;-72
2022/11/03 06:20:52;;;;;;;5.20;2.17;;;7.80;95.30;;;;;;4915462;29;20035;-71
2022/11/03 06:23:19;;;;;;;5.10;2.53;;;7.80;95.30;;;;;;4934735;29;20040;-71
2022/11/03 06:25:46;;;;;;;4.65;2.95;;;7.80;95.20;;;;;;4920439;29;20028;-70
2022/11/03 06:28:22;;;;;;;4.72;2.42;;;7.80;95.20;;;;;;4921150;29;20603;-75
2022/11/03 06:30:48;;;;;;;6.82;3.75;;;7.90;95.20;;;;;;4922121;29;20032;-69
2022/11/03 06:33:24;;;;;;;3.42;2.00;;;7.90;95.20;;;;;;4922297;29;20320;-69
2022/11/03 06:35:59;;;;;;;5.30;2.05;;;7.90;95.20;;;;;;4914729;29;20537;-70
2022/11/03 06:38:28;;;;;;;5.22;2.25;;;7.90;95.20;;;;;;4918798;29;20040;-68
2022/11/03 06:40:55;;;;;;;3.65;2.40;;;7.90;95.10;;;;;;4920285;29;20051;-69
2022/11/03 06:43:24;;;;;;;7.07;3.03;;;7.90;94.90;;;;;;4920879;29;20043;-69
2022/11/03 06:45:53;;;;;;;7.25;3.38;;;7.90;94.80;;;;;;4920548;29;20086;-70
2022/11/03 06:48:33;;;;;;;5.35;2.10;;;7.90;94.70;;;;;;4920171;29;20399;-70
2022/11/03 06:51:00;;;;;;;6.63;1.90;;;7.90;94.60;;;;;;4922378;29;20040;-67
2022/11/03 06:53:32;;;;;;;5.90;2.42;;;7.80;94.60;;;;;;4916848;29;20063;-75
2022/11/03 06:55:58;;;;;;;9.55;2.60;;;7.80;94.70;;;;;;4919075;29;20063;-69
2022/11/03 06:58:35;;;;;;;3.90;2.08;;;7.80;94.80;;;;;;4919836;29;20035;-69
2022/11/03 07:01:25;;;;;;;7.13;2.80;;;7.80;95.00;;;;;;4924053;29;20032;-67
2022/11/03 07:04:00;;;;;;;9.40;2.72;;;7.80;95.20;;;;;;4923463;29;20043;-67
2022/11/03 07:06:30;;;;;;;8.80;2.53;;;7.80;95.30;;;;;;4924250;29;20560;-67
2022/11/03 07:08:58;;;;;;;8.52;2.80;;;7.90;95.40;;;;;;4920575;29;20035;-67
2022/11/03 07:11:29;;;;;;;7.88;2.50;;;8.00;95.40;;;;;;4919813;29;20051;-68
2022/11/03 07:14:17;;;;;;;12.25;2.45;;;8.00;95.40;;;;;;4920828;29;20652;-67
2022/11/03 07:16:55;;;;;;;7.45;2.58;;;8.10;95.20;;;;;;4919055;29;20106;-67
2022/11/03 07:19:28;;;;;;;7.95;2.90;;;8.20;95.00;;;;;;4921291;29;20618;-68
2022/11/03 07:21:57;;;;;;;9.15;2.65;;;8.20;95.00;;;;;;4926492;29;20087;-68
2022/11/03 07:24:35;;;;;;;11.05;2.50;;;8.30;95.00;;;;;;4925195;29;20055;-67
2022/11/03 07:27:21;;;;;;;9.13;2.38;;;8.40;94.90;;;;;;4924047;29;20028;-67
2022/11/03 07:29:49;;;;;;;3.08;1.92;;;8.60;94.60;;;;;;4922522;29;20571;-67
2022/11/03 07:32:19;;;;;;;3.70;1.55;;;8.60;94.20;;;;;;4925163;29;20051;-68
2022/11/03 07:34:46;;;;;;;6.40;2.00;;;8.70;94.00;;;;;;4924493;29;20032;-67
2022/11/03 07:37:23;;;;;;;3.00;1.95;;;8.70;94.20;;;;;;4924863;29;20103;-67
2022/11/03 07:39:50;;;;;;;7.13;2.10;;;8.80;94.00;;;;;;4925050;29;20408;-68
2022/11/03 07:42:23;;;;;;;10.25;2.38;;;8.80;93.70;;;;;;4924711;29;20035;-67
2022/11/03 07:44:52;;;;;;;8.85;2.40;;;8.80;93.50;;;;;;4923306;29;20385;-65
2022/11/03 07:47:26;;;;;;;4.82;2.08;;;8.90;93.70;;;;;;4925279;29;20081;-67
2022/11/03 07:49:53;;;;;;;6.05;2.10;;;9.00;93.70;;;;;;4922748;29;20814;-67
2022/11/03 07:52:21;;;;;;;6.03;1.95;;;9.30;93.10;;;;;;4923108;29;20047;-67
2022/11/03 07:54:49;;;;;;;4.57;1.90;;;9.40;92.70;;;;;;4921538;29;20059;-67
2022/11/03 07:57:19;;;;;;;6.25;2.33;;;9.50;92.60;;;;;;4920325;29;20031;-66
2022/11/03 07:59:48;;;;;;;8.50;2.20;;;9.50;92.30;;;;;;4924225;29;20024;-66
2022/11/03 08:02:32;;;;;;;7.28;2.22;;;9.50;92.10;;;;;;4924224;29;20042;-66
2022/11/03 08:04:59;;;;;;;7.68;2.75;;;9.60;92.10;;;;;;4924974;29;20114;-67
2022/11/03 08:07:26;;;;;;;8.20;2.08;;;9.60;92.00;;;;;;4920369;29;20038;-67
2022/11/03 08:09:53;;;;;;;4.85;2.00;;;9.70;92.10;;;;;;4924817;29;20070;-67
2022/11/03 08:12:19;;;;;;;4.95;1.95;;;9.80;92.00;;;;;;4923737;29;20126;-67
2022/11/03 08:14:44;;;;;;;10.52;2.20;;;9.80;91.70;;;;;;4922041;29;20780;-67
2022/11/03 08:17:10;;;;;;;5.75;2.40;;;9.90;91.30;;;;;;4922659;29;20135;-66
2022/11/03 08:19:36;;;;;;;4.53;2.13;;;9.90;91.60;;;;;;4924118;29;20040;-67
2022/11/03 08:22:02;;;;;;;9.35;2.67;;;10.00;91.60;;;;;;4925401;29;20099;-67
2022/11/03 08:24:27;;;;;;;7.65;2.10;;;10.10;91.20;;;;;;4923014;29;20032;-67
2022/11/03 08:26:53;;;;;;;6.63;1.70;;;10.30;91.50;;;;;;4922305;29;20509;-66
2022/11/03 08:29:20;;;;;;;5.85;2.03;;;10.40;90.90;;;;;;4922533;29;20040;-66
2022/11/03 08:31:46;;;;;;;7.57;2.15;;;10.50;90.30;;;;;;4921489;29;20063;-66
2022/11/03 08:34:11;;;;;;;4.68;1.98;;;10.60;90.30;;;;;;4922834;29;20500;-66
2022/11/03 08:36:37;;;;;;;9.65;2.35;;;10.80;90.60;;;;;;4923900;29;20047;-68
2022/11/03 08:39:04;;;;;;;4.55;1.58;;;10.90;90.20;;;;;;4917896;29;20032;-67
2022/11/03 08:41:34;;;;;;;5.78;2.03;;;11.00;90.10;;;;;;4918110;29;20041;-67
2022/11/03 08:43:59;;;;;;;6.18;2.10;;;11.20;90.20;;;;;;4918446;29;20471;-67
2022/11/03 08:46:25;;;;;;;7.15;2.22;;;11.30;89.50;;;;;;4918205;29;20134;-67
2022/11/03 08:48:51;;;;;;;7.88;2.08;;;11.40;87.40;;;;;;4916328;29;20501;-67
2022/11/03 08:51:17;;;;;;;9.02;1.55;;;11.50;86.70;;;;;;4921687;29;20870;-68
2022/11/03 08:53:42;;;;;;;2.92;1.52;;;11.50;86.30;;;;;;4917622;29;20051;-67
2022/11/03 08:56:09;;;;;;;10.82;1.92;;;11.70;86.80;;;;;;4924740;29;20031;-68
2022/11/03 08:58:35;;;;;;;4.82;1.88;;;11.90;85.80;;;;;;4922796;29;20179;-67
2022/11/03 09:01:01;;;;;;;4.63;1.73;;;12.20;84.30;;;;;;4924088;29;20124;-68
2022/11/03 09:03:27;;;;;;;6.18;1.80;;;12.60;82.00;;;;;;4921079;29;20040;-67
2022/11/03 09:05:52;;;;;;;9.52;2.75;;;12.90;80.30;;;;;;4921821;29;20463;-68
2022/11/03 09:08:18;;;;;;;5.85;2.83;;;13.40;80.40;;;;;;4923868;29;20046;-68
2022/11/03 09:10:44;;;;;;;7.72;2.38;;;14.00;76.30;;;;;;4919307;29;20436;-68
2022/11/03 09:13:09;;;;;;;9.18;2.63;;;14.20;74.60;;;;;;4924491;29;20115;-67
2022/11/03 09:15:35;;;;;;;11.23;2.10;;;14.50;74.90;;;;;;4923533;29;20700;-67
2022/11/03 09:18:01;;;;;;;7.57;2.20;;;14.80;72.50;;;;;;4923751;29;20023;-68
2022/11/03 09:20:27;;;;;;;7.55;1.92;;;14.90;73.00;;;;;;4919016;29;20070;-67
2022/11/03 09:22:53;;;;;;;5.30;2.13;;;15.30;70.80;;;;;;4922516;29;20118;-68
2022/11/03 09:25:19;;;;;;;5.53;1.63;;;15.80;68.60;;;;;;4922460;29;20043;-68
2022/11/03 09:27:45;;;;;;;4.35;1.30;;;16.30;66.90;;;;;;4922459;29;20031;-67
2022/11/03 09:30:11;;;;;;;10.40;1.70;;;16.20;66.40;;;;;;4920132;29;20099;-68
2022/11/03 09:32:37;;;;;;;8.02;1.65;;;16.30;66.50;;;;;;4922162;29;20027;-67
2022/11/03 09:35:05;;;;;;;6.57;1.88;;;16.70;66.00;;;;;;4922306;29;20090;-67
2022/11/03 09:37:30;;;;;;;5.90;1.60;;;16.90;63.00;;;;;;4922160;29;20035;-68
2022/11/03 09:39:57;;;;;;;8.18;2.17;;;16.90;65.00;;;;;;4920961;29;20571;-67
2022/11/03 09:42:23;;;;;;;4.05;1.60;;;17.30;64.00;;;;;;4918610;29;20093;-67
2022/11/03 09:44:52;;;;;;;9.25;1.52;;;17.40;62.80;;;;;;4919342;29;20760;-67
2022/11/03 09:47:30;;;;;;;5.95;1.60;;;17.60;61.90;;;;;;4919930;29;20131;-67
2022/11/03 09:49:57;;;;;;;7.95;1.45;;;17.40;61.30;;;;;;4923022;29;20515;-67
2022/11/03 09:52:23;;;;;;;8.77;1.92;;;17.30;62.20;;;;;;4922891;29;20307;-67
2022/11/03 09:54:51;;;;;;;6.50;1.35;;;16.90;61.70;;;;;;4920750;29;20044;-67
2022/11/03 09:57:17;;;;;;;7.57;2.20;;;16.10;63.70;;;;;;4922835;29;20061;-67
2022/11/03 09:59:45;;;;;;;7.85;1.52;;;15.70;65.70;;;;;;4920241;29;20039;-67
2022/11/03 10:02:20;;;;;;;7.97;1.50;;;15.10;67.30;;;;;;4918710;29;20027;-68
2022/11/03 10:04:45;;;;;;;3.67;1.35;;;14.70;68.60;;;;;;4920354;29;20460;-67
2022/11/03 10:07:11;;;;;;;5.82;1.60;;;14.50;69.80;;;;;;4918910;29;20119;-67
2022/11/03 10:09:44;;;;;;;4.55;1.60;;;14.30;71.20;;;;;;4920101;29;20035;-67
2022/11/03 10:12:11;;;;;;;5.65;1.40;;;14.20;72.40;;;;;;4921014;29;20035;-67
2022/11/03 10:14:37;;;;;;;5.93;1.30;;;14.00;72.30;;;;;;4922307;29;20070;-67
2022/11/03 10:17:03;;;;;;;6.38;2.03;;;13.80;72.20;;;;;;4920599;29;20115;-67
2022/11/03 10:19:29;;;;;;;5.32;1.60;;;13.80;73.80;;;;;;4921459;29;20897;-67
2022/11/03 10:21:54;;;;;;;8.80;1.40;;;13.80;73.60;;;;;;4918038;29;20036;-67
2022/11/03 10:24:21;;;;;;;6.90;2.10;;;13.90;74.30;;;;;;4922196;29;20044;-74
2022/11/03 10:26:53;;;;;;;5.90;1.90;;;13.90;73.40;;;;;;4917448;29;20789;-70
2022/11/03 10:29:26;;;;;;;8.45;1.60;;;13.80;73.40;;;;;;4918389;29;20043;-71
2022/11/03 10:31:54;;;;;;;4.45;1.50;;;13.70;74.60;;;;;;4933384;28;20036;-72
2022/11/03 10:34:38;;;;;;;4.80;1.30;;;13.70;74.40;;;;;;4919198;29;20143;-72
2022/11/03 10:37:36;;;;;;;9.43;1.25;;;13.60;75.30;;;;;;4914918;29;20425;-72
2022/11/03 10:40:01;;;;;;;4.13;1.42;;;13.60;74.80;;;;;;4912483;29;20115;-72
2022/11/03 10:42:29;;;;;;;6.72;1.30;;;13.60;75.60;;;;;;4931197;29;20504;-71
2022/11/03 10:45:22;;;;;;;2.63;1.35;;;13.60;74.50;;;;;;4920215;29;20044;-72
2022/11/03 10:48:14;;;;;;;3.05;1.05;;;13.50;74.00;;;;;;4919828;29;20047;-72
2022/11/03 10:50:40;;;;;;;3.83;1.25;;;13.40;75.90;;;;;;4919065;29;20063;-72
2022/11/03 10:53:19;;;;;;;7.90;1.70;;;13.30;75.60;;;;;;4924024;29;20039;-72
2022/11/03 10:55:45;;;;;;;3.90;0.98;;;13.30;75.50;;;;;;4920697;29;20044;-72
2022/11/03 10:58:11;;;;;;;4.43;1.52;;;13.20;75.30;;;;;;4913739;29;20031;-67
2022/11/03 11:00:40;;;;;;;6.63;1.50;;;13.10;76.30;;;;;;4915941;29;20058;-77
2022/11/03 11:03:06;;;;;;;4.88;1.63;;;13.10;76.40;;;;;;4920067;29;20036;-67
2022/11/03 11:05:32;;;;;;;14.57;4.38;;;13.10;76.70;;;;;;4920162;29;20500;-67
2022/11/03 11:07:58;;;;;;;11.38;4.00;;;13.10;77.00;;;;;;4921812;29;20516;-67
2022/11/03 11:10:26;;;;;;;6.57;2.80;;;13.20;76.60;;;;;;4920607;29;20031;-67
2022/11/03 11:13:05;;;;;;;7.65;2.38;;;13.10;76.30;;;;;;4918752;29;20036;-67
2022/11/03 11:15:34;;;;;;;11.50;3.78;;;13.10;75.80;;;;;;4933533;29;20055;-67
2022/11/03 11:17:59;;;;;;;9.98;2.70;;;12.90;76.80;;;;;;4919351;29;20686;-67
2022/11/03 11:20:46;;;;;;;9.88;3.55;;;12.90;77.80;;;;;;4918971;29;20038;-67
2022/11/03 11:23:26;;;;;;;8.00;3.10;;;13.00;77.40;;;;;;4920415;29;20126;-67
2022/11/03 11:26:09;;;;;;;6.45;2.60;;;13.10;77.50;;;;;;4918980;29;20036;-68
2022/11/03 11:28:40;;;;;;;12.00;3.65;;;13.10;76.40;;;;;;4921512;29;20114;-68
2022/11/03 11:34:35;;;;;;;5.03;2.08;;;13.00;77.50;;;;;;4920172;29;20051;-67
2022/11/03 11:37:02;;;;;;;6.80;2.88;;;13.00;77.30;;;;;;4917740;29;20032;-68
2022/11/03 11:39:29;;;;;;;8.52;3.92;;;13.10;77.20;;;;;;4920734;29;20070;-68
2022/11/03 11:42:12;;;;;;;4.28;2.30;;;13.10;77.40;;;;;;4919703;29;20052;-67
2022/11/03 11:44:49;;;;;;;7.10;2.63;;;13.20;77.40;;;;;;4921851;29;20114;-72
2022/11/03 11:47:28;;;;;;;8.70;1.98;;;13.20;78.20;;;;;;4922845;29;20150;-68
2022/11/03 11:50:09;;;;;;;4.95;1.98;;;13.30;77.20;;;;;;4921875;29;20066;-68
2022/11/03 11:52:49;;;;;;;5.97;2.20;;;13.30;77.70;;;;;;4921573;29;20095;-68
2022/11/03 11:55:17;;;;;;;6.38;2.00;;;13.30;76.90;;;;;;4924998;29;20136;-68
2022/11/03 11:57:44;;;;;;;9.82;1.95;;;13.30;77.00;;;;;;4928763;29;20027;-67
2022/11/03 12:00:23;;;;;;;9.02;2.92;;;13.30;76.90;;;;;;4924021;29;20472;-67
2022/11/03 12:02:51;;;;;;;8.35;3.20;;;13.30;76.90;;;;;;4922615;29;20173;-67
2022/11/03 12:05:26;;;;;;;12.48;3.53;;;13.30;77.40;;;;;;4924712;29;20035;-68
2022/11/03 12:07:53;;;;;;;8.73;4.40;;;13.30;77.40;;;;;;4925452;29;20048;-67
2022/11/03 12:10:25;;;;;;;9.68;3.33;;;13.40;77.40;;;;;;4920642;29;20272;-67
2022/11/03 12:12:51;;;;;;;8.05;3.78;;;13.50;76.80;;;;;;4920606;29;20463;-67
2022/11/03 12:15:55;;;;;;;7.22;3.53;;;13.50;77.00;;;;;;4923293;29;20043;-67
2022/11/03 12:18:41;;;;;;;7.63;2.45;;;13.50;77.30;;;;;;4914889;29;20042;-67
2022/11/03 12:21:15;;;;;;;9.43;2.10;;;13.50;77.40;;;;;;4919729;29;20595;-67
2022/11/03 12:23:43;;;;;;;3.92;2.30;;;13.60;77.60;;;;;;4921491;29;20055;-68
2022/11/03 12:26:16;;;;;;;8.85;2.33;;;13.60;77.50;;;;;;4922508;29;20039;-67
2022/11/03 12:28:42;;;;;;;10.98;3.30;;;13.70;77.80;;;;;;4917074;29;20158;-68
2022/11/03 12:31:08;;;;;;;8.30;3.00;;;13.70;77.60;;;;;;4919625;29;20918;-67
2022/11/03 12:33:34;;;;;;;9.18;2.63;;;13.70;77.60;;;;;;4924167;29;20040;-67
2022/11/03 12:36:00;;;;;;;8.18;2.28;;;13.70;78.10;;;;;;4922922;29;20028;-68
2022/11/03 12:38:25;;;;;;;5.82;2.33;;;13.60;78.10;;;;;;4922488;29;20232;-68
2022/11/03 12:40:52;;;;;;;5.47;2.70;;;13.60;78.60;;;;;;4920114;29;20056;-67
2022/11/03 12:43:18;;;;;;;7.85;2.10;;;13.70;78.50;;;;;;4922655;29;20040;-67
2022/11/03 12:45:44;;;;;;;8.50;2.38;;;13.80;77.90;;;;;;4925251;29;20055;-67
2022/11/03 12:48:10;;;;;;;4.40;1.88;;;13.90;77.90;;;;;;4919419;29;20032;-67
2022/11/03 12:50:38;;;;;;;2.80;1.40;;;13.90;77.40;;;;;;4923509;29;20046;-68
2022/11/03 12:53:05;;;;;;;6.07;1.90;;;14.00;77.40;;;;;;4924048;29;20462;-67
2022/11/03 12:55:32;;;;;;;8.57;2.88;;;14.00;76.60;;;;;;4921147;29;20640;-69
2022/11/03 12:57:58;;;;;;;7.68;2.15;;;14.00;77.40;;;;;;4922825;29;20046;-69
2022/11/03 13:00:24;;;;;;;4.20;2.17;;;14.00;76.30;;;;;;4918678;29;20028;-69
2022/11/03 13:02:50;;;;;;;5.65;2.00;;;14.00;77.60;;;;;;4923887;29;20035;-73
2022/11/03 13:05:16;;;;;;;5.70;1.95;;;14.10;78.00;;;;;;4918951;29;20065;-70
2022/11/03 13:07:42;;;;;;;9.48;1.63;;;14.10;77.90;;;;;;4917107;29;20518;-70
2022/11/03 13:10:08;;;;;;;9.95;2.78;;;14.20;77.50;;;;;;4923234;29;20547;-70
2022/11/03 13:12:35;;;;;;;6.95;1.75;;;14.20;77.00;;;;;;4921998;29;20039;-70
2022/11/03 13:15:04;;;;;;;8.15;2.05;;;14.20;76.70;;;;;;4919587;29;20031;-70
2022/11/03 13:17:30;;;;;;;9.27;2.40;;;14.10;77.10;;;;;;4918346;29;20115;-72
2022/11/03 13:19:56;;;;;;;7.72;2.83;;;14.10;77.60;;;;;;4908980;29;20016;-71
2022/11/03 13:22:21;;;;;;;4.45;1.63;;;14.10;78.50;;;;;;4921053;29;20027;-71
2022/11/03 13:24:47;;;;;;;6.10;1.70;;;14.10;78.10;;;;;;4917464;29;20027;-72
2022/11/03 13:27:13;;;;;;;5.32;1.45;;;14.10;78.10;;;;;;4920435;29;20138;-70
2022/11/03 13:29:39;;;;;;;8.82;1.75;;;14.20;78.10;;;;;;4918509;29;20059;-70